SEKCJA WYDRUKÓW, pokaż »

METAR EPBY 290200Z 24006KT 9999 BKN012 08/07 Q0999=

METAR EPGD 290200Z 24003KT 9999 SCT044 06/05 Q0998 =

METAR EPKK 290200Z 22003KT 9999 -RA BKN050 10/09 Q1002 =

METAR EPKT 290200Z 22004KT 9999 -RA FEW025 BKN037 09/07 Q1002 =

METAR EPLB 290200Z 21007KT CAVOK 11/10 Q1001 =

METAR EPLL 290200Z 23006KT CAVOK 05/05 Q1001 =

METAR EPML 290200Z NIL=

METAR EPMO 290200Z 19007KT 6000 FEW004 SCT029 08/07 Q1000 =

METAR EPPO 290200Z 26007KT 9000 BKN004 OVC040 08/07 Q1000 =

METAR EPRA 290200Z NIL=

METAR EPRZ 290200Z 23007KT 7000 -RA BKN030 11/09 Q1002 =

METAR EPSC 290200Z 20004KT 160V230 0200 R31/0700N FG VV000 06/06
Q0999 =

METAR EPSY 290200Z 20005KT 9000 BKN018 09/08 Q0998=

METAR EPWA 290200Z 22004KT CAVOK 07/07 Q1000 NOSIG=

METAR EPWR 290200Z VRB01KT CAVOK 05/04 Q1002 =

METAR EPZG 290200Z NIL=